FOON/MVB METAR and TAF weather

Enter ICAO airport designator
Station Type Date Time Source
FOON METAR 2020/10/20 17:00 UTC NOAA

FOON 201700Z 34004KT 9999 FEW013 FEW020CB 28/22 Q1009


Station Type Date Time Source
FOON Decoded METAR 2020/10/20 17:00 UTC NOAA

Franceville / Mvengue, Gabon (FOON) 01-39S 013-26E
Oct 20, 2020 - 01:00 PM EDT / 2020.10.20 1700 UTC
Wind: from the NNW (340 degrees) at 5 MPH (4 KT):0
Visibility: greater than 7 mile(s):0
Sky conditions: mostly clear
Weather: Cumulonimbus clouds observed
Temperature: 82 F (28 C)
Dew Point: 71 F (22 C)
Relative Humidity: 69%
Pressure (altimeter): 29.80 in. Hg (1009 hPa)
ob: FOON 201700Z 34004KT 9999 FEW013 FEW020CB 28/22 Q1009
cycle: 17

Station Type Date Time Source
FOON TAF 2012/02/17 18:21 UTC NOAA

TAF TAF FOON 151600Z 1518/1618 20004KT 9999 BKN006
TEMPO 1603/1607 0200 FG OVC002
BECMG 1612/1614 TS SCT015 FEW020CB BKN030

Example: see airport list